createdAt,value
2022-08-31T00:02:00.926Z,3.40
2022-08-31T00:04:32.619Z,3.15
2022-08-31T00:07:02.886Z,3.63
2022-08-31T00:09:33.337Z,3.28
2022-08-31T00:12:03.744Z,3.95
2022-08-31T00:14:36.950Z,2.97
2022-08-31T00:17:07.211Z,3.50
2022-08-31T00:19:37.478Z,2.85
2022-08-31T00:22:07.920Z,3.63
2022-08-31T00:24:38.122Z,3.58
2022-08-31T00:27:08.484Z,3.92
2022-08-31T00:29:41.392Z,3.70
2022-08-31T00:32:11.425Z,4.07
2022-08-31T00:34:42.642Z,3.05
2022-08-31T00:37:14.071Z,3.80
2022-08-31T00:39:44.288Z,3.83
2022-08-31T00:42:14.936Z,3.40
2022-08-31T00:44:47.882Z,3.60
2022-08-31T00:47:18.269Z,3.15
2022-08-31T00:49:51.527Z,4.22
2022-08-31T00:52:24.580Z,3.90
2022-08-31T00:54:56.050Z,2.75
2022-08-31T00:57:34.373Z,3.65
2022-08-31T01:00:11.358Z,3.45
2022-08-31T01:02:41.836Z,4.25
2022-08-31T01:05:13.338Z,4.10
2022-08-31T01:07:45.078Z,3.95
2022-08-31T01:10:15.197Z,4.30
2022-08-31T01:12:45.824Z,4.00
2022-08-31T01:15:19.184Z,4.00
2022-08-31T01:17:52.255Z,3.90
2022-08-31T01:20:28.339Z,3.47
2022-08-31T01:23:09.676Z,4.22
2022-08-31T01:25:44.103Z,4.57
2022-08-31T01:28:14.883Z,3.95
2022-08-31T01:30:45.545Z,3.83
2022-08-31T01:33:15.770Z,4.20
2022-08-31T01:35:47.200Z,4.65
2022-08-31T01:38:20.103Z,3.72
2022-08-31T01:40:53.398Z,4.20
2022-08-31T01:43:23.907Z,4.30
2022-08-31T01:45:54.818Z,4.10
2022-08-31T01:48:25.377Z,4.45
2022-08-31T01:50:55.637Z,3.83
2022-08-31T01:53:28.228Z,4.15
2022-08-31T01:55:58.159Z,4.05
2022-08-31T01:58:28.461Z,4.72
2022-08-31T02:01:28.063Z,4.20
2022-08-31T02:04:04.805Z,4.63
2022-08-31T02:06:36.113Z,4.53
2022-08-31T02:09:09.928Z,3.92
2022-08-31T02:11:40.514Z,4.05
2022-08-31T02:14:11.594Z,4.55
2022-08-31T02:16:42.143Z,4.57
2022-08-31T02:19:12.592Z,3.58
2022-08-31T02:21:43.098Z,4.07
2022-08-31T02:24:15.917Z,4.28
2022-08-31T02:26:47.691Z,4.70
2022-08-31T02:29:19.702Z,3.80
2022-08-31T02:31:49.888Z,4.50
2022-08-31T02:34:19.963Z,4.22
2022-08-31T02:36:49.963Z,4.40
2022-08-31T02:39:23.161Z,4.25
2022-08-31T02:41:53.461Z,4.85
2022-08-31T02:44:23.745Z,3.95
2022-08-31T02:46:54.262Z,3.72
2022-08-31T02:49:47.482Z,4.30
2022-08-31T02:52:17.749Z,3.88
2022-08-31T02:54:50.529Z,3.90
2022-08-31T02:57:23.281Z,3.60
2022-08-31T02:59:53.235Z,4.10
2022-08-31T03:02:31.613Z,3.45
2022-08-31T03:05:03.933Z,3.47
2022-08-31T03:07:34.228Z,3.90
2022-08-31T03:10:08.204Z,3.80
2022-08-31T03:12:38.573Z,3.38
2022-08-31T03:15:10.317Z,3.70
2022-08-31T03:17:40.777Z,3.30
2022-08-31T03:20:14.463Z,3.55
2022-08-31T03:22:45.754Z,3.78
2022-08-31T03:25:19.752Z,3.53
2022-08-31T03:27:50.119Z,3.67
2022-08-31T03:30:22.758Z,3.42
2022-08-31T03:33:03.289Z,3.40
2022-08-31T03:35:35.468Z,3.35
2022-08-31T03:38:05.714Z,3.15
2022-08-31T03:40:39.025Z,3.75
2022-08-31T03:43:16.386Z,3.38
2022-08-31T03:45:47.348Z,3.05
2022-08-31T03:48:17.766Z,3.47
2022-08-31T03:50:48.816Z,3.47
2022-08-31T03:53:25.641Z,4.07
2022-08-31T03:56:02.059Z,2.80
2022-08-31T03:58:34.888Z,3.05
2022-08-31T04:01:05.538Z,3.78
2022-08-31T04:03:54.445Z,3.28
2022-08-31T04:06:43.249Z,3.17
2022-08-31T04:09:32.184Z,3.78
2022-08-31T04:12:43.217Z,3.22
2022-08-31T04:15:30.002Z,3.00
2022-08-31T04:18:29.222Z,3.08
2022-08-31T04:20:59.254Z,3.38
2022-08-31T04:23:30.115Z,3.10
2022-08-31T04:26:01.992Z,2.75
2022-08-31T04:28:34.850Z,3.03
2022-08-31T04:31:10.180Z,3.72
2022-08-31T04:33:41.421Z,3.70
2022-08-31T04:36:12.833Z,3.40
2022-08-31T04:38:45.558Z,3.92
2022-08-31T04:41:18.803Z,2.85
2022-08-31T04:43:52.701Z,3.28
2022-08-31T04:46:24.283Z,3.20
2022-08-31T04:48:54.686Z,3.13
2022-08-31T04:51:26.567Z,3.13
2022-08-31T04:53:57.369Z,4.13
2022-08-31T04:56:29.600Z,3.72
2022-08-31T04:59:03.184Z,3.80
2022-08-31T05:01:36.246Z,3.25
2022-08-31T05:04:32.749Z,3.00
2022-08-31T05:07:02.709Z,3.38
2022-08-31T05:09:33.016Z,3.10
2022-08-31T05:12:03.482Z,3.58
2022-08-31T05:14:37.094Z,3.10
2022-08-31T05:17:16.469Z,3.45
2022-08-31T05:19:47.244Z,3.28
2022-08-31T05:22:19.259Z,2.92
2022-08-31T05:24:50.960Z,3.30
2022-08-31T05:27:21.280Z,3.38
2022-08-31T05:29:54.184Z,3.42
2022-08-31T05:32:47.535Z,3.50
2022-08-31T05:35:18.497Z,3.30
2022-08-31T05:37:48.995Z,3.45
2022-08-31T05:40:19.078Z,3.83
2022-08-31T05:42:49.065Z,3.85
2022-08-31T05:45:21.906Z,3.75
2022-08-31T05:47:52.183Z,4.30
2022-08-31T05:50:22.444Z,4.05
2022-08-31T05:52:53.088Z,3.13
2022-08-31T05:55:23.340Z,3.70
2022-08-31T05:57:54.061Z,4.00
2022-08-31T06:00:27.619Z,3.58
2022-08-31T06:03:12.345Z,3.88
2022-08-31T06:05:43.120Z,3.35
2022-08-31T06:08:15.437Z,3.70
2022-08-31T06:10:47.017Z,3.05
2022-08-31T06:13:18.208Z,2.97
2022-08-31T06:15:51.043Z,3.10
2022-08-31T06:18:21.085Z,3.22
2022-08-31T06:20:52.052Z,3.55
2022-08-31T06:23:22.758Z,3.20
2022-08-31T06:25:54.633Z,3.22
2022-08-31T06:28:24.616Z,3.13
2022-08-31T06:30:57.526Z,3.70
2022-08-31T06:33:27.516Z,2.72
2022-08-31T06:36:14.857Z,3.63
2022-08-31T06:39:04.585Z,2.95
2022-08-31T06:41:57.934Z,2.53
2022-08-31T06:44:34.996Z,3.10
2022-08-31T06:47:23.476Z,2.85
2022-08-31T06:49:57.245Z,3.05
2022-08-31T06:52:27.242Z,2.87
2022-08-31T06:55:13.668Z,2.65
2022-08-31T06:58:02.165Z,2.90
2022-08-31T07:00:51.016Z,2.85
2022-08-31T07:03:51.786Z,3.20
2022-08-31T07:06:24.037Z,2.65
2022-08-31T07:08:56.483Z,2.97
2022-08-31T07:11:27.857Z,3.33
2022-08-31T07:13:59.206Z,2.53
2022-08-31T07:16:31.197Z,2.90
2022-08-31T07:19:06.399Z,2.88
2022-08-31T07:21:41.601Z,2.55
2022-08-31T07:24:11.844Z,2.22
2022-08-31T07:26:43.739Z,2.88
2022-08-31T07:29:17.238Z,2.25
2022-08-31T07:31:49.020Z,2.65
2022-08-31T07:34:25.888Z,2.60
2022-08-31T07:37:31.859Z,2.22
2022-08-31T07:40:14.881Z,2.38
2022-08-31T07:42:46.985Z,2.45
2022-08-31T07:45:25.777Z,2.15
2022-08-31T07:47:59.933Z,2.55
2022-08-31T07:50:46.842Z,2.45
2022-08-31T07:53:52.599Z,2.22
2022-08-31T07:56:34.846Z,1.95
2022-08-31T07:59:17.621Z,2.08
2022-08-31T08:01:49.161Z,1.70
2022-08-31T08:04:21.814Z,2.17
2022-08-31T08:07:17.856Z,1.90
2022-08-31T08:09:55.676Z,2.05
2022-08-31T08:12:58.232Z,2.33
2022-08-31T08:15:40.572Z,2.42
2022-08-31T08:18:31.946Z,2.60
2022-08-31T08:21:06.101Z,2.03
2022-08-31T08:23:38.706Z,2.30
2022-08-31T08:26:32.868Z,2.00
2022-08-31T08:29:11.779Z,1.90
2022-08-31T08:31:53.046Z,2.78
2022-08-31T08:34:31.070Z,2.30
2022-08-31T08:37:03.130Z,2.28
2022-08-31T08:39:35.944Z,2.90
2022-08-31T08:42:15.716Z,2.42
2022-08-31T08:44:47.612Z,2.72
2022-08-31T08:47:20.958Z,1.80
2022-08-31T08:50:03.634Z,1.98
2022-08-31T08:52:41.421Z,2.13
2022-08-31T08:55:18.357Z,2.60
2022-08-31T08:57:52.438Z,2.10
2022-08-31T09:00:25.037Z,2.47
2022-08-31T09:03:01.963Z,2.15
2022-08-31T09:06:00.534Z,2.00
2022-08-31T09:08:42.545Z,2.53
2022-08-31T09:11:23.898Z,2.25
2022-08-31T09:14:06.380Z,1.88
2022-08-31T09:16:48.027Z,3.13
2022-08-31T09:19:20.993Z,2.10
2022-08-31T09:21:54.119Z,3.38
2022-08-31T09:24:27.543Z,2.28
2022-08-31T09:27:48.503Z,2.00
2022-08-31T09:30:20.280Z,1.70
2022-08-31T09:33:00.370Z,2.20
2022-08-31T09:35:40.524Z,1.92
2022-08-31T09:38:16.241Z,1.88
2022-08-31T09:40:49.880Z,1.98
2022-08-31T09:43:38.744Z,1.88
2022-08-31T09:46:13.029Z,2.00
2022-08-31T09:48:51.499Z,1.77
2022-08-31T09:51:28.344Z,1.75
2022-08-31T09:54:14.017Z,1.65
2022-08-31T09:57:02.568Z,1.77
2022-08-31T09:59:38.502Z,2.00
2022-08-31T10:02:21.422Z,1.90
2022-08-31T10:04:55.361Z,1.60
2022-08-31T10:07:38.486Z,1.63
2022-08-31T10:10:30.006Z,1.65
2022-08-31T10:13:05.326Z,1.73
2022-08-31T10:15:44.596Z,1.77
2022-08-31T10:18:19.906Z,1.83
2022-08-31T10:20:56.978Z,1.70
2022-08-31T10:23:34.859Z,2.05
2022-08-31T10:26:07.742Z,1.70
2022-08-31T10:28:39.665Z,1.93
2022-08-31T10:31:21.197Z,1.58
2022-08-31T10:34:11.896Z,1.77
2022-08-31T10:36:43.938Z,1.50
2022-08-31T10:39:27.449Z,1.80
2022-08-31T10:41:57.859Z,1.70
2022-08-31T10:44:36.904Z,1.65
2022-08-31T10:47:14.356Z,1.63
2022-08-31T10:50:04.659Z,1.92
2022-08-31T10:52:43.769Z,2.65
2022-08-31T10:55:22.001Z,1.92
2022-08-31T10:57:56.744Z,2.00
2022-08-31T11:00:42.893Z,1.80
2022-08-31T11:03:20.702Z,2.00
2022-08-31T11:05:59.937Z,1.70
2022-08-31T11:08:49.122Z,2.15
2022-08-31T11:11:25.048Z,1.58
2022-08-31T11:14:18.811Z,1.70
2022-08-31T11:17:12.360Z,1.58
2022-08-31T11:20:09.321Z,1.67
2022-08-31T11:23:09.953Z,2.03
2022-08-31T11:26:12.622Z,2.08
2022-08-31T11:28:49.010Z,1.85
2022-08-31T11:31:24.085Z,1.73
2022-08-31T11:34:15.110Z,1.67
2022-08-31T11:36:50.617Z,1.83
2022-08-31T11:39:45.553Z,1.80
2022-08-31T11:42:39.348Z,1.92
2022-08-31T11:45:14.049Z,1.58
2022-08-31T11:47:46.745Z,1.90
2022-08-31T11:50:57.603Z,1.95
2022-08-31T11:53:38.168Z,1.92
2022-08-31T11:56:11.833Z,2.10
2022-08-31T12:01:36.357Z,2.15
2022-08-31T12:04:06.823Z,1.95
2022-08-31T12:07:11.200Z,2.20
2022-08-31T12:10:26.748Z,2.00
2022-08-31T12:13:19.567Z,2.88
2022-08-31T12:16:17.981Z,2.05
2022-08-31T12:19:13.231Z,2.20
2022-08-31T12:22:05.906Z,1.77
2022-08-31T12:24:43.827Z,2.45
2022-08-31T12:27:30.080Z,2.17
2022-08-31T12:30:19.408Z,2.15
2022-08-31T12:33:00.035Z,2.00
2022-08-31T12:35:30.924Z,2.30
2022-08-31T12:38:02.901Z,2.03
2022-08-31T12:40:35.855Z,2.20
2022-08-31T12:43:10.928Z,1.90
2022-08-31T12:46:05.331Z,2.60
2022-08-31T12:49:07.732Z,2.80
2022-08-31T12:51:45.709Z,3.30
2022-08-31T12:55:09.391Z,2.80
2022-08-31T12:57:52.354Z,2.67
2022-08-31T13:00:26.385Z,2.47
2022-08-31T13:03:02.055Z,2.83
2022-08-31T13:05:34.017Z,2.45
2022-08-31T13:08:09.090Z,2.30
2022-08-31T13:10:41.738Z,2.78
2022-08-31T13:13:13.338Z,2.38
2022-08-31T13:15:46.134Z,2.30
2022-08-31T13:18:24.913Z,2.60
2022-08-31T13:21:02.340Z,2.35
2022-08-31T13:23:38.545Z,3.03
2022-08-31T13:26:13.501Z,2.25
2022-08-31T13:28:45.393Z,2.22
2022-08-31T13:31:22.837Z,2.35
2022-08-31T13:33:57.067Z,2.50
2022-08-31T13:36:34.432Z,2.67
2022-08-31T13:39:08.757Z,2.30
2022-08-31T13:41:41.083Z,2.67
2022-08-31T13:44:13.891Z,2.17
2022-08-31T13:47:01.303Z,2.57
2022-08-31T13:49:38.115Z,2.28
2022-08-31T13:52:16.408Z,2.00
2022-08-31T13:54:46.616Z,2.10
2022-08-31T13:57:22.803Z,2.63
2022-08-31T13:59:53.044Z,1.80
2022-08-31T14:02:39.577Z,2.58
2022-08-31T14:05:13.047Z,2.33
2022-08-31T14:07:59.261Z,2.30
2022-08-31T14:10:30.705Z,2.55
2022-08-31T14:13:02.580Z,1.80
2022-08-31T14:15:38.849Z,2.15
2022-08-31T14:18:25.317Z,1.88
2022-08-31T14:21:27.439Z,1.98
2022-08-31T14:24:02.541Z,1.80
2022-08-31T14:26:34.390Z,2.00
2022-08-31T14:29:10.764Z,1.90
2022-08-31T14:31:48.530Z,1.67
2022-08-31T14:34:27.656Z,1.58
2022-08-31T14:37:02.483Z,2.10
2022-08-31T14:39:37.257Z,1.90
2022-08-31T14:42:09.780Z,1.90
2022-08-31T14:44:41.051Z,2.83
2022-08-31T14:47:12.317Z,1.80
2022-08-31T14:49:45.532Z,2.03
2022-08-31T14:52:16.169Z,2.17
2022-08-31T14:54:48.940Z,2.00
2022-08-31T14:57:25.182Z,1.80
2022-08-31T14:59:57.652Z,1.75
2022-08-31T15:02:33.431Z,1.70
2022-08-31T15:05:06.622Z,1.70
2022-08-31T15:07:39.233Z,2.50
2022-08-31T15:10:14.069Z,2.30
2022-08-31T15:12:45.136Z,2.00
2022-08-31T15:15:20.772Z,1.80
2022-08-31T15:17:52.847Z,2.03
2022-08-31T15:20:23.521Z,1.75
2022-08-31T15:22:53.839Z,1.60
2022-08-31T15:25:28.834Z,1.63
2022-08-31T15:27:59.664Z,1.63
2022-08-31T15:30:30.222Z,1.65
2022-08-31T15:33:01.628Z,1.55
2022-08-31T15:35:31.966Z,1.58
2022-08-31T15:38:06.500Z,2.03
2022-08-31T15:40:39.990Z,1.60
2022-08-31T15:43:12.522Z,1.77
2022-08-31T15:45:42.567Z,1.70
2022-08-31T15:48:25.266Z,1.60
2022-08-31T15:51:00.606Z,1.73
2022-08-31T15:53:35.439Z,1.70
2022-08-31T15:56:09.453Z,1.50
2022-08-31T15:58:41.246Z,1.65
2022-08-31T16:01:16.180Z,1.77
2022-08-31T16:03:52.033Z,1.80
2022-08-31T16:06:25.816Z,1.65
2022-08-31T16:08:56.027Z,1.90
2022-08-31T16:11:30.737Z,1.70
2022-08-31T16:14:01.305Z,1.90
2022-08-31T16:16:32.999Z,1.70
2022-08-31T16:19:04.362Z,1.80
2022-08-31T16:21:37.537Z,1.90
2022-08-31T16:24:09.906Z,1.58
2022-08-31T16:26:44.810Z,2.03
2022-08-31T16:29:16.675Z,1.65
2022-08-31T16:31:47.893Z,1.67
2022-08-31T16:34:18.480Z,1.35
2022-08-31T16:36:51.004Z,1.90
2022-08-31T16:39:23.543Z,1.60
2022-08-31T16:41:59.173Z,1.55
2022-08-31T16:44:30.184Z,1.33
2022-08-31T16:47:07.264Z,2.17
2022-08-31T16:49:36.204Z,1.42
2022-08-31T16:52:09.946Z,1.77
2022-08-31T16:54:42.802Z,2.10
2022-08-31T16:57:16.228Z,2.20
2022-08-31T16:59:46.918Z,1.73
2022-08-31T17:02:18.641Z,1.63
2022-08-31T17:04:52.479Z,1.83
2022-08-31T17:07:25.614Z,1.60
2022-08-31T17:10:01.890Z,1.67
2022-08-31T17:12:38.263Z,1.92
2022-08-31T17:15:12.181Z,1.65
2022-08-31T17:20:13.198Z,1.67
2022-08-31T17:22:44.652Z,1.60
2022-08-31T17:25:17.763Z,2.03
2022-08-31T17:27:51.391Z,1.65
2022-08-31T17:30:23.209Z,1.63
2022-08-31T17:32:53.186Z,1.70
2022-08-31T17:35:24.016Z,2.10
2022-08-31T17:37:53.937Z,1.80
2022-08-31T17:40:24.085Z,1.58
2022-08-31T17:43:00.035Z,1.55
2022-08-31T17:45:30.130Z,1.42
2022-08-31T17:48:00.136Z,2.10
2022-08-31T17:50:30.042Z,2.10
2022-08-31T17:53:00.281Z,2.42
2022-08-31T17:55:31.853Z,1.65
2022-08-31T17:58:05.854Z,1.92
2022-08-31T18:03:05.893Z,2.25
2022-08-31T18:05:36.720Z,2.20
2022-08-31T18:08:07.517Z,1.63
2022-08-31T18:10:38.951Z,2.20
2022-08-31T18:13:12.693Z,2.00
2022-08-31T18:15:43.603Z,1.50
2022-08-31T18:18:13.841Z,2.10
2022-08-31T18:20:44.486Z,2.25
2022-08-31T18:23:16.535Z,2.28
2022-08-31T18:25:46.534Z,1.98
2022-08-31T18:28:19.333Z,1.67
2022-08-31T18:30:50.612Z,1.95
2022-08-31T18:33:21.073Z,2.05
2022-08-31T18:35:52.087Z,2.05
2022-08-31T18:38:22.281Z,2.58
2022-08-31T18:41:04.953Z,2.03
2022-08-31T18:43:49.958Z,1.80
2022-08-31T18:46:19.958Z,2.28
2022-08-31T18:49:01.120Z,2.10
2022-08-31T18:51:47.294Z,2.22
2022-08-31T18:54:17.608Z,1.92
2022-08-31T18:56:48.033Z,2.13
2022-08-31T18:59:22.146Z,2.28
2022-08-31T19:01:52.246Z,2.30
2022-08-31T19:04:22.577Z,2.03
2022-08-31T19:06:53.384Z,1.95
2022-08-31T19:09:24.104Z,2.45
2022-08-31T19:11:55.902Z,2.67
2022-08-31T19:14:28.724Z,2.05
2022-08-31T19:17:03.704Z,2.47
2022-08-31T19:19:34.964Z,2.30
2022-08-31T19:22:05.217Z,2.35
2022-08-31T19:24:35.934Z,1.75
2022-08-31T19:27:06.386Z,2.03
2022-08-31T19:29:39.441Z,2.83
2022-08-31T19:32:13.810Z,2.30
2022-08-31T19:34:48.051Z,2.20
2022-08-31T19:37:18.568Z,2.70
2022-08-31T19:39:49.698Z,2.22
2022-08-31T19:42:19.924Z,2.35
2022-08-31T19:44:55.838Z,2.67
2022-08-31T19:47:42.954Z,2.47
2022-08-31T19:50:13.980Z,2.33
2022-08-31T19:52:44.226Z,2.60
2022-08-31T19:55:14.879Z,2.53
2022-08-31T19:57:45.975Z,2.53
2022-08-31T20:00:20.033Z,2.45
2022-08-31T20:05:20.968Z,2.67
2022-08-31T20:07:50.883Z,2.75
2022-08-31T20:10:29.964Z,3.00
2022-08-31T20:13:02.013Z,2.65
2022-08-31T20:15:34.553Z,2.25
2022-08-31T20:18:07.570Z,2.80
2022-08-31T20:20:45.254Z,2.33
2022-08-31T20:23:16.751Z,2.65
2022-08-31T20:25:49.257Z,3.00
2022-08-31T20:28:26.412Z,2.50
2022-08-31T20:30:59.942Z,2.50
2022-08-31T20:33:30.749Z,2.70
2022-08-31T20:36:00.935Z,3.13
2022-08-31T20:38:39.407Z,3.00
2022-08-31T20:41:12.360Z,2.65
2022-08-31T20:43:44.587Z,2.40
2022-08-31T20:46:37.170Z,3.10
2022-08-31T20:49:19.894Z,3.10
2022-08-31T20:51:50.021Z,2.65
2022-08-31T20:54:20.233Z,3.42
2022-08-31T20:56:50.594Z,2.75
2022-08-31T20:59:23.437Z,2.40
2022-08-31T21:01:59.566Z,3.30
2022-08-31T21:04:30.875Z,2.55
2022-08-31T21:07:02.429Z,2.75
2022-08-31T21:09:32.859Z,2.95
2022-08-31T21:12:07.888Z,2.80
2022-08-31T21:14:40.529Z,2.83
2022-08-31T21:17:14.262Z,2.63
2022-08-31T21:19:45.657Z,3.05
2022-08-31T21:22:18.228Z,2.97
2022-08-31T21:24:49.924Z,3.28
2022-08-31T21:27:20.441Z,2.80
2022-08-31T21:29:51.408Z,2.97
2022-08-31T21:32:24.255Z,3.55
2022-08-31T21:34:58.250Z,2.70
2022-08-31T21:39:58.536Z,2.55
2022-08-31T21:42:28.801Z,2.70
2022-08-31T21:44:59.037Z,2.22
2022-08-31T21:47:31.611Z,3.10
2022-08-31T21:50:01.826Z,3.10
2022-08-31T21:52:31.903Z,2.85
2022-08-31T21:55:05.559Z,3.25
2022-08-31T21:57:35.796Z,2.67
2022-08-31T22:00:13.592Z,2.78
2022-08-31T22:02:48.017Z,2.85
2022-08-31T22:05:18.351Z,2.95
2022-08-31T22:07:49.267Z,2.95
2022-08-31T22:10:20.424Z,2.92
2022-08-31T22:12:50.397Z,3.10
2022-08-31T22:15:24.034Z,2.67
2022-08-31T22:18:26.003Z,3.20
2022-08-31T22:20:50.014Z,2.83
2022-08-31T22:23:20.194Z,3.13
2022-08-31T22:25:51.737Z,2.97
2022-08-31T22:28:22.689Z,3.17
2022-08-31T22:30:53.185Z,2.72
2022-08-31T22:33:25.790Z,3.10
2022-08-31T22:35:56.005Z,3.22
2022-08-31T22:38:26.221Z,2.92
2022-08-31T22:40:56.565Z,2.80
2022-08-31T22:43:26.849Z,3.03
2022-08-31T22:45:56.864Z,2.67
2022-08-31T22:48:29.410Z,2.60
2022-08-31T22:50:59.361Z,2.42
2022-08-31T22:53:29.306Z,2.83
2022-08-31T22:55:59.760Z,2.35
2022-08-31T22:58:29.768Z,2.70
2022-08-31T23:01:00.013Z,3.10
2022-08-31T23:03:32.844Z,3.00
2022-08-31T23:06:03.431Z,2.95
2022-08-31T23:08:34.236Z,2.85
2022-08-31T23:11:04.181Z,3.38
2022-08-31T23:13:51.955Z,2.70
2022-08-31T23:16:24.954Z,3.20
2022-08-31T23:18:59.083Z,3.28
2022-08-31T23:21:31.084Z,2.85
2022-08-31T23:24:02.193Z,3.00
2022-08-31T23:26:33.224Z,2.92
2022-08-31T23:29:06.389Z,3.42
2022-08-31T23:31:36.937Z,4.00
2022-08-31T23:34:13.223Z,2.95
2022-08-31T23:36:47.645Z,2.38
2022-08-31T23:39:18.234Z,2.53
2022-08-31T23:41:48.986Z,2.70
2022-08-31T23:44:19.454Z,3.05
2022-08-31T23:46:50.053Z,2.90
2022-08-31T23:49:22.809Z,3.05
2022-08-31T23:51:53.061Z,3.00
2022-08-31T23:54:25.064Z,3.10
2022-08-31T23:56:57.960Z,2.25
2022-08-31T23:59:31.411Z,2.60
